Time;durP1;ratioP1;P1;durP2;ratioP2;P2;SDS_P1;SDS_P2;PMS_P1;PMS_P2;Temp;Humidity;BMP_temperature;BMP_pressure;BME280_temperature;BME280_humidity;BME280_pressure;Samples;Min_cycle;Max_cycle;Signal;HPM_P1;HPM_P2
2021/07/24 00:00:10;;;;;;;9.25;6.65;;;;;;;22.14;54.05;96207.13;5100779;28;20229;-63
2021/07/24 00:02:36;;;;;;;9.30;7.15;;;;;;;22.38;54.07;96200.22;5105388;28;20188;-62
2021/07/24 00:05:01;;;;;;;7.95;6.50;;;;;;;22.23;54.23;96192.69;5095710;28;20211;-63
2021/07/24 00:07:26;;;;;;;8.65;6.45;;;;;;;22.30;54.21;96186.84;5109483;28;20190;-63
2021/07/24 00:09:52;;;;;;;8.13;6.25;;;;;;;22.24;54.05;96178.22;5098055;28;20191;-62
2021/07/24 00:12:17;;;;;;;8.93;6.50;;;;;;;22.06;54.90;96179.34;5103318;28;20180;-62
2021/07/24 00:14:43;;;;;;;9.55;7.28;;;;;;;22.21;54.58;96186.09;5104338;28;20211;-63
2021/07/24 00:17:08;;;;;;;7.75;6.15;;;;;;;22.18;54.71;96174.13;5106246;28;20272;-63
2021/07/24 00:19:33;;;;;;;10.52;7.15;;;;;;;22.28;54.49;96173.84;5104895;28;20690;-63
2021/07/24 00:21:59;;;;;;;8.27;6.72;;;;;;;22.19;54.68;96159.69;5097993;28;20263;-64
2021/07/24 00:24:24;;;;;;;8.15;6.95;;;;;;;22.12;55.53;96167.41;5108520;28;20230;-63
2021/07/24 00:26:49;;;;;;;8.88;6.90;;;;;;;22.07;55.45;96161.44;5108463;28;20173;-63
2021/07/24 00:29:15;;;;;;;7.95;6.22;;;;;;;22.06;55.95;96154.53;5100506;28;20187;-63
2021/07/24 00:31:41;;;;;;;9.48;7.00;;;;;;;21.90;56.22;96157.63;5104500;28;20187;-67
2021/07/24 00:34:07;;;;;;;8.88;7.22;;;;;;;21.87;56.33;96154.81;5098045;28;20184;-64
2021/07/24 00:36:33;;;;;;;8.65;6.18;;;;;;;21.96;56.01;96148.41;5107770;28;20572;-63
2021/07/24 00:38:58;;;;;;;9.35;6.75;;;;;;;21.94;56.32;96150.63;5101071;28;21027;-63
2021/07/24 00:41:30;;;;;;;9.30;6.70;;;;;;;21.83;56.74;96154.66;5098360;28;20209;-63
2021/07/24 00:43:59;;;;;;;10.00;6.78;;;;;;;21.80;56.45;96157.94;5099431;28;20220;-62
2021/07/24 00:46:25;;;;;;;10.50;7.50;;;;;;;21.91;56.40;96159.19;5107933;28;20591;-63
2021/07/24 00:48:52;;;;;;;9.73;7.22;;;;;;;21.78;56.81;96156.69;5110174;27;20188;-63
2021/07/24 00:51:26;;;;;;;12.20;7.20;;;;;;;21.74;56.76;96145.06;5097378;28;20638;-61
2021/07/24 00:53:54;;;;;;;8.13;7.03;;;;;;;21.74;56.70;96140.50;5102886;28;20629;-61
2021/07/24 00:56:21;;;;;;;8.25;6.97;;;;;;;21.57;57.11;96137.81;5096730;28;20237;-61
2021/07/24 00:58:47;;;;;;;10.02;6.95;;;;;;;21.62;57.03;96128.91;5093701;28;20176;-61
2021/07/24 01:01:12;;;;;;;11.35;7.25;;;;;;;21.61;56.95;96132.69;5105308;28;20590;-61
2021/07/24 01:03:38;;;;;;;9.43;7.05;;;;;;;21.65;56.61;96128.28;5092461;28;20195;-61
2021/07/24 01:06:03;;;;;;;10.20;7.53;;;;;;;21.65;56.17;96130.94;5103944;28;20601;-61
2021/07/24 01:08:31;;;;;;;9.73;6.75;;;;;;;21.61;56.16;96133.47;5096169;28;20191;-62
2021/07/24 01:10:56;;;;;;;9.05;7.20;;;;;;;21.65;56.45;96133.63;5107379;28;20192;-61
2021/07/24 01:13:22;;;;;;;9.80;7.07;;;;;;;21.62;56.42;96134.25;5098434;28;20583;-61
2021/07/24 01:15:50;;;;;;;10.18;7.03;;;;;;;21.56;56.62;96120.28;5097817;28;20641;-62
2021/07/24 01:18:16;;;;;;;9.75;7.50;;;;;;;21.66;56.52;96108.50;5105695;28;20195;-62
2021/07/24 01:20:42;;;;;;;8.32;6.60;;;;;;;21.54;56.76;96103.78;5094911;28;20196;-66
2021/07/24 01:23:09;;;;;;;11.40;8.90;;;;;;;21.60;56.52;96099.09;5103954;28;20191;-62
2021/07/24 01:25:49;;;;;;;8.55;6.75;;;;;;;21.59;56.75;96106.31;5104929;28;20196;-62
2021/07/24 01:28:26;;;;;;;11.73;7.40;;;;;;;21.43;57.03;96100.66;5098654;28;20181;-62
2021/07/24 01:30:53;;;;;;;9.93;6.65;;;;;;;21.48;57.20;96099.72;5091795;28;20173;-62
2021/07/24 01:33:18;;;;;;;11.05;7.35;;;;;;;21.60;56.77;96097.22;5100733;28;20196;-62
2021/07/24 01:35:47;;;;;;;9.80;7.40;;;;;;;21.49;57.27;96104.75;5095703;28;20191;-66
2021/07/24 01:38:17;;;;;;;10.77;7.05;;;;;;;21.49;57.25;96112.75;5103225;28;20234;-63
2021/07/24 01:40:43;;;;;;;10.32;7.50;;;;;;;21.45;57.49;96117.13;5089326;28;20188;-66
2021/07/24 01:43:08;;;;;;;10.27;6.82;;;;;;;21.65;57.09;96113.06;5107057;28;20202;-62
2021/07/24 01:45:35;;;;;;;8.85;7.30;;;;;;;21.69;57.17;96116.66;5092163;28;20223;-62
2021/07/24 01:48:03;;;;;;;8.45;6.75;;;;;;;21.66;57.27;96116.50;5097040;28;20587;-62
2021/07/24 01:53:13;;;;;;;11.68;7.40;;;;;;;21.62;57.56;96129.69;5108223;28;20555;-62
2021/07/24 01:55:44;;;;;;;10.00;7.03;;;;;;;21.51;58.11;96126.53;5095265;28;20191;-64
2021/07/24 01:58:13;;;;;;;9.18;7.13;;;;;;;21.51;58.40;96133.78;5101108;28;20168;-63
2021/07/24 02:00:42;;;;;;;11.10;7.53;;;;;;;21.42;58.81;96132.94;5100423;28;20192;-62
2021/07/24 02:03:12;;;;;;;9.82;7.72;;;;;;;21.35;59.03;96140.63;5106541;28;20179;-63
2021/07/24 02:05:45;;;;;;;10.88;7.88;;;;;;;21.37;59.19;96149.09;5093271;28;20207;-62
2021/07/24 02:08:15;;;;;;;10.23;7.50;;;;;;;21.36;59.48;96147.53;5103470;28;20176;-62
2021/07/24 02:10:42;;;;;;;11.05;7.85;;;;;;;21.31;59.67;96150.34;5091882;28;20271;-62
2021/07/24 02:13:10;;;;;;;10.00;7.80;;;;;;;21.32;59.69;96147.38;5106401;28;20266;-61
2021/07/24 02:15:36;;;;;;;9.18;7.70;;;;;;;21.34;59.39;96150.53;5094496;28;20246;-62
2021/07/24 02:18:02;;;;;;;10.20;7.65;;;;;;;21.33;59.82;96151.63;5104576;28;20649;-62
2021/07/24 02:20:28;;;;;;;13.93;8.02;;;;;;;21.36;59.75;96148.31;5101641;28;20184;-62
2021/07/24 02:22:56;;;;;;;10.85;7.68;;;;;;;21.27;60.00;96155.50;5099834;28;20242;-63
2021/07/24 02:25:21;;;;;;;12.95;8.32;;;;;;;21.38;59.64;96154.13;5111582;28;20203;-62
2021/07/24 02:27:48;;;;;;;11.98;8.50;;;;;;;21.34;59.77;96149.72;5098453;28;20187;-66
2021/07/24 02:30:15;;;;;;;10.38;8.27;;;;;;;21.46;59.25;96136.56;5104307;28;20184;-62
2021/07/24 02:32:41;;;;;;;9.32;7.47;;;;;;;21.42;59.59;96138.28;5103999;28;20191;-62
2021/07/24 02:35:07;;;;;;;11.20;7.97;;;;;;;21.43;59.36;96132.66;5109174;28;20565;-62
2021/07/24 02:37:33;;;;;;;10.48;7.85;;;;;;;21.50;59.43;96142.84;5097879;28;20199;-62
2021/07/24 02:39:58;;;;;;;14.00;8.05;;;;;;;21.45;59.20;96135.00;5107786;28;20187;-62
2021/07/24 02:42:24;;;;;;;10.90;7.65;;;;;;;21.44;59.75;96139.56;5106498;28;20251;-61
2021/07/24 02:44:49;;;;;;;10.27;7.70;;;;;;;21.42;59.76;96135.63;5104883;28;20660;-62
2021/07/24 02:47:14;;;;;;;10.75;7.82;;;;;;;21.47;59.61;96138.91;5099008;28;20231;-62
2021/07/24 02:49:40;;;;;;;12.55;8.10;;;;;;;21.51;59.44;96131.09;5097043;28;20208;-62
2021/07/24 02:52:06;;;;;;;11.90;7.88;;;;;;;21.34;60.16;96131.88;5108086;28;20624;-62
2021/07/24 02:54:31;;;;;;;10.98;7.75;;;;;;;21.42;60.07;96138.28;5105757;28;20285;-62
2021/07/24 02:56:57;;;;;;;11.23;8.15;;;;;;;21.40;60.09;96141.25;5106900;28;20537;-62
2021/07/24 02:59:22;;;;;;;10.98;7.95;;;;;;;21.34;60.30;96137.19;5098428;28;20192;-62
2021/07/24 03:01:47;;;;;;;11.10;7.55;;;;;;;21.38;60.11;96132.81;5110465;28;20199;-66
2021/07/24 03:04:13;;;;;;;12.23;7.43;;;;;;;21.38;60.10;96121.34;5100727;28;20204;-62
2021/07/24 03:06:38;;;;;;;12.48;8.00;;;;;;;21.27;60.37;96125.41;5111959;28;20183;-63
2021/07/24 03:09:06;;;;;;;10.90;7.80;;;;;;;21.41;59.98;96132.16;5098727;28;20271;-62
2021/07/24 03:11:32;;;;;;;11.88;7.75;;;;;;;21.40;60.13;96121.84;5110776;28;20215;-62
2021/07/24 03:13:58;;;;;;;11.40;8.30;;;;;;;21.43;60.25;96121.97;5096971;28;20605;-62
2021/07/24 03:16:23;;;;;;;11.45;7.90;;;;;;;21.43;60.39;96113.19;5105333;28;20184;-62
2021/07/24 03:18:48;;;;;;;11.98;8.25;;;;;;;21.47;60.16;96114.91;5103014;27;20633;-65
2021/07/24 03:21:14;;;;;;;12.57;8.63;;;;;;;21.49;60.11;96117.28;5105387;28;20191;-62
2021/07/24 03:23:39;;;;;;;13.40;8.25;;;;;;;21.47;60.32;96109.59;5097223;28;20189;-62
2021/07/24 03:26:08;;;;;;;12.90;8.98;;;;;;;21.44;60.20;96107.56;5108106;28;20889;-63
2021/07/24 03:28:34;;;;;;;10.00;7.55;;;;;;;21.39;60.62;96104.25;5094341;28;20233;-62
2021/07/24 03:30:59;;;;;;;8.90;7.93;;;;;;;21.31;60.88;96097.03;5105460;28;20188;-62
2021/07/24 03:33:25;;;;;;;11.23;8.57;;;;;;;21.31;60.96;96091.69;5099341;28;20520;-62
2021/07/24 03:35:50;;;;;;;10.52;8.68;;;;;;;21.19;61.34;96088.84;5093638;28;20262;-62
2021/07/24 03:38:16;;;;;;;10.32;8.38;;;;;;;21.24;61.19;96086.81;5099928;28;20271;-62
2021/07/24 03:40:43;;;;;;;12.35;8.65;;;;;;;21.05;61.86;96088.94;5101898;28;20640;-62
2021/07/24 03:43:09;;;;;;;10.95;8.43;;;;;;;21.17;61.54;96086.50;5099604;28;20188;-62
2021/07/24 03:45:34;;;;;;;12.18;8.05;;;;;;;21.23;61.22;96090.59;5110301;28;20235;-62
2021/07/24 03:48:01;;;;;;;11.15;7.85;;;;;;;21.15;61.35;96086.03;5094948;28;20210;-61
2021/07/24 03:50:26;;;;;;;13.18;8.30;;;;;;;21.19;61.51;96091.50;5106385;28;20638;-61
2021/07/24 03:52:51;;;;;;;10.68;7.93;;;;;;;21.19;61.82;96094.97;5103478;28;20275;-62
2021/07/24 03:55:17;;;;;;;11.40;8.20;;;;;;;21.24;61.56;96108.13;5098870;28;20665;-62
2021/07/24 03:57:42;;;;;;;11.35;8.07;;;;;;;21.27;61.27;96106.75;5110436;28;20183;-62
2021/07/24 04:00:08;;;;;;;10.82;8.60;;;;;;;21.42;60.85;96107.06;5096119;28;20186;-62
2021/07/24 04:02:34;;;;;;;12.65;8.98;;;;;;;21.49;60.62;96103.94;5104039;28;20181;-62
2021/07/24 04:05:01;;;;;;;12.68;8.68;;;;;;;21.49;60.73;96112.75;5100511;28;20219;-62
2021/07/24 04:07:28;;;;;;;10.35;7.80;;;;;;;21.50;60.46;96114.31;5093560;28;20176;-62
2021/07/24 04:09:54;;;;;;;10.85;7.88;;;;;;;21.57;60.48;96122.63;5094844;28;20242;-62
2021/07/24 04:12:19;;;;;;;12.25;7.85;;;;;;;21.49;60.75;96125.28;5107180;28;20201;-62
2021/07/24 04:14:45;;;;;;;13.45;9.15;;;;;;;21.56;60.56;96131.75;5102750;28;20645;-62
2021/07/24 04:17:11;;;;;;;11.32;8.75;;;;;;;21.60;60.44;96133.75;5109008;28;20192;-62
2021/07/24 04:19:37;;;;;;;12.32;8.30;;;;;;;21.69;60.38;96153.22;5095957;28;20660;-62
2021/07/24 04:22:05;;;;;;;10.95;7.85;;;;;;;21.84;59.87;96158.13;5092438;28;20180;-64
2021/07/24 04:24:31;;;;;;;12.52;8.23;;;;;;;21.90;59.57;96160.28;5099366;28;20215;-62
2021/07/24 04:26:56;;;;;;;10.73;7.75;;;;;;;21.92;59.74;96165.31;5101519;28;20185;-62
2021/07/24 04:29:22;;;;;;;10.75;8.50;;;;;;;22.06;59.20;96170.56;5105170;28;20180;-62
2021/07/24 04:31:47;;;;;;;9.90;7.63;;;;;;;22.01;59.43;96152.81;5096287;28;20202;-66
2021/07/24 04:34:13;;;;;;;9.80;8.00;;;;;;;22.04;59.39;96146.84;5103998;28;20184;-65
2021/07/24 04:36:41;;;;;;;11.57;8.13;;;;;;;21.80;59.74;96135.81;5107740;28;20517;-62
2021/07/24 04:39:06;;;;;;;11.85;8.15;;;;;;;21.53;60.83;96140.34;5094313;28;20313;-62
2021/07/24 04:41:31;;;;;;;10.90;8.02;;;;;;;21.62;60.76;96145.72;5110103;28;20188;-62
2021/07/24 04:43:57;;;;;;;11.75;8.32;;;;;;;21.63;60.47;96154.47;5104647;28;20180;-62
2021/07/24 04:46:22;;;;;;;9.73;7.93;;;;;;;21.69;60.44;96163.88;5101350;28;20236;-62
2021/07/24 04:48:47;;;;;;;10.73;7.43;;;;;;;21.70;60.34;96160.13;5097856;28;20653;-65
2021/07/24 04:51:15;;;;;;;9.77;7.57;;;;;;;21.78;60.13;96164.69;5099704;28;20180;-63
2021/07/24 04:53:42;;;;;;;11.07;7.38;;;;;;;21.81;60.21;96177.41;5075830;28;20561;-62
2021/07/24 04:56:08;;;;;;;15.65;7.70;;;;;;;21.84;60.19;96184.81;5098908;28;20184;-61
2021/07/24 04:58:34;;;;;;;12.90;7.97;;;;;;;21.90;59.74;96191.56;5100720;28;20272;-61
2021/07/24 05:01:00;;;;;;;11.55;7.47;;;;;;;21.88;59.57;96188.41;5106335;28;20184;-62
2021/07/24 05:03:25;;;;;;;12.52;7.78;;;;;;;21.84;59.42;96169.56;5094458;28;20241;-62
2021/07/24 05:05:53;;;;;;;10.93;7.63;;;;;;;21.59;60.42;96178.31;5096024;28;20236;-66
2021/07/24 05:08:20;;;;;;;13.02;8.27;;;;;;;21.20;61.70;96173.84;5111862;28;20180;-61
2021/07/24 05:10:46;;;;;;;10.15;7.95;;;;;;;21.05;62.30;96175.03;5099331;28;20284;-61
2021/07/24 05:13:11;;;;;;;10.85;7.45;;;;;;;21.16;61.66;96180.88;5107223;28;20267;-61
2021/07/24 05:15:38;;;;;;;9.82;7.45;;;;;;;21.33;61.53;96175.59;5092626;28;20872;-61
2021/07/24 05:18:04;;;;;;;11.80;8.18;;;;;;;21.49;61.34;96173.28;5093822;28;20177;-61
2021/07/24 05:20:30;;;;;;;10.48;7.93;;;;;;;21.63;61.32;96181.94;5102201;28;20206;-63
2021/07/24 05:22:58;;;;;;;9.43;7.60;;;;;;;21.80;60.63;96187.28;5097129;28;20219;-62
2021/07/24 05:25:24;;;;;;;10.95;7.57;;;;;;;22.01;60.28;96182.19;5108206;28;20206;-62
2021/07/24 05:27:50;;;;;;;11.40;7.72;;;;;;;22.08;60.12;96190.47;5095988;28;20179;-66
2021/07/24 05:30:15;;;;;;;9.45;7.85;;;;;;;22.43;59.02;96193.91;5109308;28;20676;-62
2021/07/24 05:32:41;;;;;;;9.68;7.70;;;;;;;22.74;57.78;96183.81;5100744;28;20187;-61
2021/07/24 05:35:07;;;;;;;9.93;8.07;;;;;;;23.23;56.59;96180.81;5100979;28;20215;-62
2021/07/24 05:37:32;;;;;;;12.40;7.88;;;;;;;23.51;55.98;96204.16;5092388;28;20191;-62
2021/07/24 05:39:58;;;;;;;12.82;8.20;;;;;;;23.45;56.00;96196.59;5098536;28;20192;-62
2021/07/24 05:42:23;;;;;;;11.45;8.52;;;;;;;23.19;56.39;96186.78;5099356;28;20187;-62
2021/07/24 05:44:49;;;;;;;9.90;8.15;;;;;;;23.19;56.65;96191.34;5099214;28;20204;-61
2021/07/24 05:47:14;;;;;;;10.02;8.20;;;;;;;23.44;56.30;96190.47;5090860;28;20237;-61
2021/07/24 05:49:39;;;;;;;10.32;7.85;;;;;;;22.99;57.59;96186.72;5106920;28;20190;-61
2021/07/24 05:52:08;;;;;;;10.40;7.90;;;;;;;23.14;57.59;96199.56;5096971;28;20255;-62
2021/07/24 05:54:36;;;;;;;11.23;7.90;;;;;;;23.65;55.83;96216.50;5101509;28;20192;-61
2021/07/24 05:57:02;;;;;;;13.63;8.30;;;;;;;24.16;54.43;96213.47;5108067;28;20636;-63
2021/07/24 05:59:27;;;;;;;11.52;7.55;;;;;;;24.28;54.41;96229.63;5098735;28;20192;-63
2021/07/24 06:01:53;;;;;;;9.00;6.97;;;;;;;24.56;53.41;96231.75;5109275;28;20199;-66
2021/07/24 06:04:18;;;;;;;10.90;7.75;;;;;;;24.68;53.24;96242.53;5102382;27;20195;-62
2021/07/24 06:06:43;;;;;;;10.40;7.80;;;;;;;24.82;52.59;96246.47;5097753;28;20633;-61
2021/07/24 06:09:09;;;;;;;8.13;7.32;;;;;;;24.79;52.88;96251.72;5112797;28;20188;-64
2021/07/24 06:11:34;;;;;;;10.13;8.73;;;;;;;24.68;53.36;96255.94;5109050;28;20218;-62
2021/07/24 06:14:00;;;;;;;9.07;7.22;;;;;;;24.49;53.90;96256.41;5105108;28;20191;-62
2021/07/24 06:16:25;;;;;;;13.18;8.13;;;;;;;24.36;54.73;96260.13;5107957;28;20339;-62
2021/07/24 06:18:50;;;;;;;15.68;8.02;;;;;;;24.37;54.94;96248.31;5121812;27;20181;-61
2021/07/24 06:21:18;;;;;;;9.65;7.80;;;;;;;24.15;55.30;96236.00;5107361;28;20215;-62
2021/07/24 06:23:44;;;;;;;12.45;8.25;;;;;;;23.86;55.77;96244.06;5098776;27;20241;-61
2021/07/24 06:26:09;;;;;;;12.32;8.50;;;;;;;23.82;56.77;96259.22;5094448;28;20228;-62
2021/07/24 06:28:35;;;;;;;10.80;8.25;;;;;;;23.85;57.70;96269.28;5110371;28;20295;-62
2021/07/24 06:31:04;;;;;;;11.63;9.00;;;;;;;23.93;58.09;96271.91;5100752;27;20191;-61
2021/07/24 06:33:32;;;;;;;11.43;8.65;;;;;;;23.98;57.89;96292.34;5110142;28;20262;-61
2021/07/24 06:35:59;;;;;;;10.07;8.18;;;;;;;23.85;57.71;96309.44;5094321;28;20180;-63
2021/07/24 06:38:26;;;;;;;10.73;8.80;;;;;;;24.03;56.75;96298.31;5099380;28;20180;-63
2021/07/24 06:40:51;;;;;;;10.30;8.18;;;;;;;24.31;55.78;96281.75;5106722;28;20211;-63
2021/07/24 06:43:17;;;;;;;13.20;8.70;;;;;;;24.64;55.33;96281.81;5098685;28;20176;-63
2021/07/24 06:45:42;;;;;;;10.35;7.18;;;;;;;24.93;54.58;96279.03;5111158;28;20271;-63
2021/07/24 06:48:07;;;;;;;11.93;7.95;;;;;;;25.18;53.91;96272.66;5099782;28;20649;-63
2021/07/24 06:50:33;;;;;;;10.75;8.80;;;;;;;25.32;53.29;96271.53;5106041;28;20264;-62
2021/07/24 06:52:59;;;;;;;12.18;8.68;;;;;;;25.38;52.96;96265.63;5106264;28;20211;-63
2021/07/24 06:55:25;;;;;;;8.85;7.63;;;;;;;25.35;52.81;96262.84;5098249;28;20188;-63
2021/07/24 06:57:50;;;;;;;9.48;7.88;;;;;;;25.47;53.04;96279.69;5111298;28;20194;-63
2021/07/24 07:00:16;;;;;;;10.50;7.97;;;;;;;25.49;53.17;96276.69;5100238;28;20176;-63
2021/07/24 07:02:41;;;;;;;10.05;7.88;;;;;;;25.76;52.43;96267.22;5113895;28;20241;-63
2021/07/24 07:05:07;;;;;;;15.50;8.43;;;;;;;26.07;51.91;96278.16;5108051;28;20204;-63
2021/07/24 07:07:32;;;;;;;13.35;7.45;;;;;;;26.25;51.41;96279.50;5102918;28;20192;-63
2021/07/24 07:09:58;;;;;;;8.65;7.35;;;;;;;26.27;51.28;96269.19;5100800;28;20648;-67
2021/07/24 07:12:23;;;;;;;10.18;7.72;;;;;;;26.25;52.11;96258.00;5105621;28;20525;-61
2021/07/24 07:14:48;;;;;;;11.27;8.23;;;;;;;25.72;53.72;96248.31;5097283;28;20246;-63
2021/07/24 07:17:15;;;;;;;10.48;8.95;;;;;;;25.47;54.40;96247.50;5104762;28;20273;-62
2021/07/24 07:19:40;;;;;;;13.23;8.73;;;;;;;25.32;54.92;96263.47;5104689;28;20190;-62
2021/07/24 07:22:06;;;;;;;16.63;8.93;;;;;;;25.20;54.91;96266.94;5093945;28;20183;-62
2021/07/24 07:24:32;;;;;;;10.65;7.68;;;;;;;25.20;54.72;96278.44;5108029;28;20186;-66
2021/07/24 07:26:58;;;;;;;10.40;8.50;;;;;;;25.04;56.07;96284.78;5096197;28;20200;-68
2021/07/24 07:29:24;;;;;;;9.20;8.30;;;;;;;25.00;56.44;96289.25;5107900;28;20629;-62
2021/07/24 07:31:49;;;;;;;9.40;8.25;;;;;;;24.80;57.55;96301.53;5103345;28;20194;-62
2021/07/24 07:34:14;;;;;;;11.68;8.77;;;;;;;24.80;57.91;96302.31;5092770;28;20187;-63
2021/07/24 07:36:40;;;;;;;10.48;8.52;;;;;;;24.75;58.65;96307.09;5093043;28;20190;-64
2021/07/24 07:39:05;;;;;;;11.00;9.30;;;;;;;24.60;58.56;96308.50;5097377;27;20212;-63
2021/07/24 07:41:31;;;;;;;13.35;9.23;;;;;;;24.37;59.46;96317.97;5100477;28;20237;-63
2021/07/24 07:43:57;;;;;;;15.25;9.88;;;;;;;24.14;60.46;96322.81;5103026;28;20195;-69
2021/07/24 07:46:22;;;;;;;15.23;9.48;;;;;;;24.23;60.48;96326.25;5106494;28;20235;-62
2021/07/24 07:48:48;;;;;;;13.27;8.98;;;;;;;24.43;59.96;96322.81;5096638;28;20254;-62
2021/07/24 07:51:13;;;;;;;11.85;8.73;;;;;;;24.55;59.21;96318.63;5095965;28;20249;-63
2021/07/24 07:53:39;;;;;;;13.20;8.05;;;;;;;24.68;58.95;96320.25;5103916;28;20203;-63
2021/07/24 07:56:06;;;;;;;10.75;8.63;;;;;;;24.51;59.16;96339.16;5093633;28;20189;-62
2021/07/24 07:58:32;;;;;;;13.85;8.32;;;;;;;24.30;59.08;96361.34;5104808;28;20184;-62
2021/07/24 08:00:57;;;;;;;11.32;8.32;;;;;;;24.23;59.10;96350.38;5109434;28;20240;-68
2021/07/24 08:03:26;;;;;;;10.70;8.02;;;;;;;24.10;58.97;96343.31;5107386;28;20181;-61
2021/07/24 08:05:54;;;;;;;11.07;8.15;;;;;;;24.08;58.84;96331.34;5104127;28;20685;-63
2021/07/24 08:08:20;;;;;;;11.98;8.45;;;;;;;24.20;58.64;96342.97;5105208;28;20184;-62
2021/07/24 08:10:46;;;;;;;17.75;8.65;;;;;;;24.24;59.32;96346.56;5105936;28;20206;-63
2021/07/24 08:13:16;;;;;;;9.18;7.22;;;;;;;24.17;59.01;96345.50;5095782;28;20192;-65
2021/07/24 08:15:42;;;;;;;11.20;8.05;;;;;;;24.48;57.58;96316.47;5105518;28;20238;-62
2021/07/24 08:18:07;;;;;;;10.95;7.70;;;;;;;24.64;57.06;96301.34;5103509;28;20183;-62
2021/07/24 08:20:33;;;;;;;12.43;8.10;;;;;;;24.50;57.54;96266.00;5097418;28;20208;-63
2021/07/24 08:22:59;;;;;;;11.23;8.25;;;;;;;23.99;59.12;96221.63;5095832;28;20195;-69
2021/07/24 08:25:25;;;;;;;10.98;7.97;;;;;;;23.38;62.38;96212.38;5108287;28;20204;-63
2021/07/24 08:27:50;;;;;;;12.13;8.48;;;;;;;23.21;63.62;96214.00;5100195;28;20663;-62
2021/07/24 08:30:16;;;;;;;10.75;8.18;;;;;;;23.32;63.42;96216.31;5099934;28;20203;-62
2021/07/24 08:32:41;;;;;;;10.70;8.15;;;;;;;23.05;64.30;96206.84;5107278;28;20184;-62
2021/07/24 08:35:07;;;;;;;12.43;7.90;;;;;;;22.87;65.07;96211.44;5093688;28;20212;-65
2021/07/24 08:37:32;;;;;;;12.35;8.57;;;;;;;23.47;62.17;96199.75;5092757;28;20222;-63
2021/07/24 08:40:12;;;;;;;12.48;7.50;;;;;;;23.83;60.51;96183.94;5067696;28;20582;-63
2021/07/24 08:42:41;;;;;;;11.02;8.77;;;;;;;23.88;60.44;96182.97;5054469;28;20193;-63
2021/07/24 08:45:17;;;;;;;15.73;9.55;;;;;;;24.10;60.13;96174.59;5062075;28;20196;-63
2021/07/24 08:47:43;;;;;;;11.45;8.20;;;;;;;24.40;59.16;96162.72;5052567;28;20242;-63
2021/07/24 08:50:11;;;;;;;11.27;8.38;;;;;;;25.16;56.78;96170.25;5068139;28;20657;-62
2021/07/24 08:52:37;;;;;;;10.93;8.18;;;;;;;25.72;55.45;96170.47;5062697;28;20217;-62
2021/07/24 08:55:06;;;;;;;9.55;7.70;;;;;;;26.33;53.79;96171.09;5051080;28;20201;-67
2021/07/24 08:57:36;;;;;;;10.13;8.10;;;;;;;26.72;52.98;96160.59;5038808;28;20216;-61
2021/07/24 09:00:15;;;;;;;8.00;7.20;;;;;;;26.97;52.10;96164.72;5057397;28;20243;-68
2021/07/24 09:02:45;;;;;;;10.35;8.07;;;;;;;27.29;51.82;96160.88;5054988;28;20545;-62
2021/07/24 09:05:16;;;;;;;9.90;7.97;;;;;;;27.40;50.62;96163.03;5046484;28;20205;-64
2021/07/24 09:07:46;;;;;;;10.10;8.23;;;;;;;27.05;50.92;96169.13;5062295;28;20182;-62
2021/07/24 09:10:13;;;;;;;11.30;8.20;;;;;;;26.67;52.02;96167.00;5055241;28;20574;-62
2021/07/24 09:12:40;;;;;;;12.98;8.45;;;;;;;25.82;54.99;96161.94;5056510;28;20182;-62
2021/07/24 09:15:07;;;;;;;11.43;8.38;;;;;;;26.17;54.22;96172.91;5047643;28;20178;-64
2021/07/24 09:17:32;;;;;;;19.77;8.32;;;;;;;26.38;53.87;96164.69;5050884;28;20284;-63
2021/07/24 09:19:59;;;;;;;12.50;8.13;;;;;;;26.38;54.43;96176.22;5060608;28;20297;-63
2021/07/24 09:22:34;;;;;;;10.60;7.82;;;;;;;26.74;53.67;96188.72;5056888;28;20257;-62
2021/07/24 09:25:10;;;;;;;15.25;10.52;;;;;;;26.76;52.57;96199.09;5064935;28;20174;-63
2021/07/24 09:27:37;;;;;;;13.77;10.57;;;;;;;26.89;51.96;96201.41;5047577;28;20211;-63
2021/07/24 09:30:04;;;;;;;11.57;9.00;;;;;;;27.24;50.70;96204.22;5049994;28;20194;-69
2021/07/24 09:32:31;;;;;;;11.82;8.73;;;;;;;27.39;50.22;96207.25;5048563;28;20269;-64
2021/07/24 09:34:57;;;;;;;10.70;8.65;;;;;;;27.66;50.08;96211.75;5048518;28;20204;-63
2021/07/24 09:37:27;;;;;;;11.55;8.05;;;;;;;27.83;49.50;96211.38;5047576;28;20189;-63
2021/07/24 09:39:54;;;;;;;12.93;8.57;;;;;;;27.82;49.11;96212.50;5058191;28;20244;-63
2021/07/24 09:42:20;;;;;;;10.68;8.05;;;;;;;28.00;49.06;96223.66;5048312;28;20635;-63
2021/07/24 09:44:46;;;;;;;13.38;8.50;;;;;;;27.86;49.28;96224.16;5063441;28;20280;-64
2021/07/24 09:47:28;;;;;;;14.75;8.40;;;;;;;27.89;49.40;96228.81;5049608;28;20268;-63
2021/07/24 09:50:08;;;;;;;9.35;7.60;;;;;;;27.78;49.40;96225.09;5053692;28;20189;-62
2021/07/24 09:52:44;;;;;;;10.20;7.63;;;;;;;28.01;48.54;96223.31;5037000;28;20217;-63
2021/07/24 09:55:20;;;;;;;12.15;7.72;;;;;;;27.64;49.75;96222.13;5035774;28;20178;-62
2021/07/24 09:57:50;;;;;;;12.40;8.50;;;;;;;26.96;51.21;96216.97;5053654;28;20178;-62
2021/07/24 10:00:34;;;;;;;10.52;7.90;;;;;;;26.88;51.65;96213.28;5046205;28;20280;-63
2021/07/24 10:03:05;;;;;;;10.90;8.00;;;;;;;26.78;52.49;96210.31;5037248;28;20175;-64
2021/07/24 10:05:35;;;;;;;12.63;7.80;;;;;;;27.00;51.62;96207.06;5048694;28;20228;-63
2021/07/24 10:08:04;;;;;;;12.60;7.60;;;;;;;27.17;51.11;96205.94;5034360;28;20194;-62
2021/07/24 10:10:32;;;;;;;15.07;7.60;;;;;;;27.25;50.86;96186.91;5046237;28;20178;-62
2021/07/24 10:12:58;;;;;;;11.00;7.55;;;;;;;27.11;51.06;96193.88;5037349;28;20194;-63
2021/07/24 10:15:24;;;;;;;10.60;7.22;;;;;;;27.13;50.38;96205.88;5046390;28;20197;-61
2021/07/24 10:17:50;;;;;;;11.55;7.18;;;;;;;27.46;49.77;96213.59;5045525;28;20194;-61
2021/07/24 10:20:17;;;;;;;9.63;7.18;;;;;;;27.88;48.93;96211.09;5039520;28;20192;-62
2021/07/24 10:22:43;;;;;;;9.65;7.25;;;;;;;28.39;47.74;96209.13;5050292;28;20189;-62
2021/07/24 10:25:09;;;;;;;8.57;6.90;;;;;;;28.55;47.44;96203.63;5040941;28;20536;-66
2021/07/24 10:27:36;;;;;;;10.10;7.40;;;;;;;28.75;46.63;96197.13;5048018;28;20186;-63
2021/07/24 10:30:05;;;;;;;7.18;6.13;;;;;;;28.93;46.02;96200.13;5049025;28;20193;-63
2021/07/24 10:32:42;;;;;;;9.90;7.00;;;;;;;28.61;46.52;96190.63;5046823;28;20187;-63
2021/07/24 10:35:09;;;;;;;12.07;8.07;;;;;;;27.77;47.06;96183.13;5040288;28;20292;-69
2021/07/24 10:37:46;;;;;;;12.15;6.80;;;;;;;27.86;48.31;96175.66;5047242;28;20547;-64
2021/07/24 10:40:17;;;;;;;9.80;7.10;;;;;;;27.46;49.76;96170.50;5035731;28;20288;-63
2021/07/24 10:42:48;;;;;;;10.65;7.30;;;;;;;27.34;49.71;96180.59;5046192;28;20228;-63
2021/07/24 10:45:31;;;;;;;10.98;7.65;;;;;;;27.60;49.35;96172.75;5043387;28;20264;-63
2021/07/24 10:48:19;;;;;;;9.38;7.20;;;;;;;28.00;48.94;96165.16;5035615;28;20289;-62
2021/07/24 10:50:54;;;;;;;9.32;6.60;;;;;;;28.27;48.12;96166.13;5045657;28;20595;-63
2021/07/24 10:53:24;;;;;;;9.15;6.43;;;;;;;28.30;46.92;96175.44;5043644;28;20259;-62
2021/07/24 10:55:51;;;;;;;9.27;6.82;;;;;;;28.25;46.80;96173.00;5036904;28;20625;-62
2021/07/24 10:58:18;;;;;;;9.15;6.03;;;;;;;28.51;46.81;96178.53;5048129;28;20199;-63
2021/07/24 11:00:54;;;;;;;9.23;6.55;;;;;;;28.60;47.23;96179.06;5039270;28;20204;-63
2021/07/24 11:03:37;;;;;;;9.65;7.32;;;;;;;28.47;47.34;96186.56;5040188;28;20178;-63
2021/07/24 11:06:29;;;;;;;9.57;6.97;;;;;;;28.80;47.08;96191.44;5034496;28;20197;-65
2021/07/24 11:08:58;;;;;;;8.90;6.20;;;;;;;29.11;45.10;96185.00;5031885;28;20229;-63
2021/07/24 11:11:35;;;;;;;7.70;5.68;;;;;;;29.47;45.36;96174.81;5036873;28;20190;-62
2021/07/24 11:14:01;;;;;;;10.35;6.78;;;;;;;29.54;44.92;96177.59;5047299;28;20189;-63
2021/07/24 11:17:11;;;;;;;8.32;6.40;;;;;;;29.34;45.36;96174.22;5039467;28;20182;-63
2021/07/24 11:19:43;;;;;;;8.50;6.38;;;;;;;29.32;46.14;96176.50;5034514;28;20217;-62
2021/07/24 11:22:38;;;;;;;6.07;4.82;;;;;;;29.43;42.62;96177.44;5047301;28;20327;-68
2021/07/24 11:25:03;;;;;;;6.18;5.13;;;;;;;29.45;43.01;96158.97;5036688;28;20198;-63
2021/07/24 11:27:30;;;;;;;6.38;4.80;;;;;;;29.54;42.26;96172.97;5050894;28;20190;-63
2021/07/24 11:30:04;;;;;;;5.95;4.50;;;;;;;29.47;42.15;96177.50;5040244;28;20601;-62